LSQ weather

María Dolores Airport
Los Angeles, Bío-Bío Region, Chile

Public forecast

Using degrees Celsius for public forecast. Weather courtesy of forecast.io.

Current aviation weather report (METAR) for María Dolores Airport

Report is more than 6 hours old.

Retrieved 2019/10/20 21:00 UTC (9 hours ago):

SCGE 202100Z 27012KT 9999 SCT030 BKN070 16/08 Q1025

Closest aviation forecast (TAF) to María Dolores Airport

Closest forecast is Carriel Sur Airport, 48.6 nm (90.0 km) NW. Retrieved 2019/10/21 06:00 UTC (25 minutes ago):

TAF SCIE 210406Z 2106/2206 35005KT 9999 SCT025 BKN050 TX19/2118Z TN10/2111Z TEMPO 2108/2113 27005KT 6000 -DZ SCT008 OVC015 BECMG 2116/2118 18010KT CAVOK BECMG 2120/2122 18015KT TEMPO 2203/2206 15005KT